sensor_id;sensor_type;location;lat;lon;timestamp;temperature;humidity
15543;DHT22;7873;52.230;12.856;2022-09-25T00:01:37;23.90;49.50
15543;DHT22;7873;52.230;12.856;2022-09-25T00:04:03;23.90;49.50
15543;DHT22;7873;52.230;12.856;2022-09-25T00:06:30;23.90;49.50
15543;DHT22;7873;52.230;12.856;2022-09-25T00:08:58;23.90;49.50
15543;DHT22;7873;52.230;12.856;2022-09-25T00:11:28;23.90;49.60
15543;DHT22;7873;52.230;12.856;2022-09-25T00:13:56;23.80;49.70
15543;DHT22;7873;52.230;12.856;2022-09-25T00:16:25;23.80;49.60
15543;DHT22;7873;52.230;12.856;2022-09-25T00:18:53;23.80;49.60
15543;DHT22;7873;52.230;12.856;2022-09-25T00:21:38;23.80;49.60
15543;DHT22;7873;52.230;12.856;2022-09-25T00:24:06;23.80;49.50
15543;DHT22;7873;52.230;12.856;2022-09-25T00:26:35;23.80;49.50
15543;DHT22;7873;52.230;12.856;2022-09-25T00:29:03;23.90;49.50
15543;DHT22;7873;52.230;12.856;2022-09-25T00:31:32;23.90;49.50
15543;DHT22;7873;52.230;12.856;2022-09-25T00:34:00;23.80;49.60
15543;DHT22;7873;52.230;12.856;2022-09-25T00:36:28;23.80;49.60
15543;DHT22;7873;52.230;12.856;2022-09-25T00:38:55;23.80;49.60
15543;DHT22;7873;52.230;12.856;2022-09-25T00:41:23;23.80;49.60
15543;DHT22;7873;52.230;12.856;2022-09-25T00:43:53;23.80;49.60
15543;DHT22;7873;52.230;12.856;2022-09-25T00:46:22;23.90;49.60
15543;DHT22;7873;52.230;12.856;2022-09-25T00:48:54;23.90;49.70
15543;DHT22;7873;52.230;12.856;2022-09-25T00:51:26;23.90;49.70
15543;DHT22;7873;52.230;12.856;2022-09-25T00:53:56;23.80;49.70
15543;DHT22;7873;52.230;12.856;2022-09-25T00:56:25;23.90;49.70
15543;DHT22;7873;52.230;12.856;2022-09-25T00:58:56;23.80;49.60
15543;DHT22;7873;52.230;12.856;2022-09-25T01:01:23;23.80;49.60
15543;DHT22;7873;52.230;12.856;2022-09-25T01:03:50;23.80;49.60
15543;DHT22;7873;52.230;12.856;2022-09-25T01:06:16;23.80;49.50
15543;DHT22;7873;52.230;12.856;2022-09-25T01:08:43;23.90;49.40
15543;DHT22;7873;52.230;12.856;2022-09-25T01:11:11;23.80;49.40
15543;DHT22;7873;52.230;12.856;2022-09-25T01:13:38;23.80;49.40
15543;DHT22;7873;52.230;12.856;2022-09-25T01:16:08;23.80;49.40
15543;DHT22;7873;52.230;12.856;2022-09-25T01:18:44;23.80;49.50
15543;DHT22;7873;52.230;12.856;2022-09-25T01:21:21;23.80;49.50
15543;DHT22;7873;52.230;12.856;2022-09-25T01:24:01;23.80;49.40
15543;DHT22;7873;52.230;12.856;2022-09-25T01:26:43;23.80;49.40
15543;DHT22;7873;52.230;12.856;2022-09-25T01:29:22;23.80;49.30
15543;DHT22;7873;52.230;12.856;2022-09-25T01:31:54;23.90;49.20
15543;DHT22;7873;52.230;12.856;2022-09-25T01:34:28;23.90;49.20
15543;DHT22;7873;52.230;12.856;2022-09-25T01:37:04;23.90;49.40
15543;DHT22;7873;52.230;12.856;2022-09-25T01:39:37;23.80;49.50
15543;DHT22;7873;52.230;12.856;2022-09-25T01:42:09;23.80;49.50
15543;DHT22;7873;52.230;12.856;2022-09-25T01:44:44;23.90;49.50
15543;DHT22;7873;52.230;12.856;2022-09-25T01:47:16;23.90;49.50
15543;DHT22;7873;52.230;12.856;2022-09-25T01:49:47;23.90;49.40
15543;DHT22;7873;52.230;12.856;2022-09-25T01:52:19;23.90;49.40
15543;DHT22;7873;52.230;12.856;2022-09-25T01:54:50;23.90;49.50
15543;DHT22;7873;52.230;12.856;2022-09-25T01:57:21;23.80;49.50
15543;DHT22;7873;52.230;12.856;2022-09-25T01:59:53;23.90;49.50
15543;DHT22;7873;52.230;12.856;2022-09-25T02:02:26;23.80;49.60
15543;DHT22;7873;52.230;12.856;2022-09-25T02:04:57;23.90;49.50
15543;DHT22;7873;52.230;12.856;2022-09-25T02:07:28;23.80;49.50
15543;DHT22;7873;52.230;12.856;2022-09-25T02:10:00;23.90;49.40
15543;DHT22;7873;52.230;12.856;2022-09-25T02:12:31;23.80;49.30
15543;DHT22;7873;52.230;12.856;2022-09-25T02:15:08;23.80;49.40
15543;DHT22;7873;52.230;12.856;2022-09-25T02:17:39;23.80;49.30
15543;DHT22;7873;52.230;12.856;2022-09-25T02:20:28;23.80;49.30
15543;DHT22;7873;52.230;12.856;2022-09-25T02:23:00;23.80;49.30
15543;DHT22;7873;52.230;12.856;2022-09-25T02:25:34;23.80;49.30
15543;DHT22;7873;52.230;12.856;2022-09-25T02:28:04;23.80;49.20
15543;DHT22;7873;52.230;12.856;2022-09-25T02:30:32;23.80;49.20
15543;DHT22;7873;52.230;12.856;2022-09-25T02:32:59;23.80;49.10
15543;DHT22;7873;52.230;12.856;2022-09-25T02:35:25;23.70;49.00
15543;DHT22;7873;52.230;12.856;2022-09-25T02:37:52;23.80;49.00
15543;DHT22;7873;52.230;12.856;2022-09-25T02:40:21;23.80;49.00
15543;DHT22;7873;52.230;12.856;2022-09-25T02:42:58;23.70;49.10
15543;DHT22;7873;52.230;12.856;2022-09-25T02:45:35;23.70;49.30
15543;DHT22;7873;52.230;12.856;2022-09-25T02:48:08;23.70;49.50
15543;DHT22;7873;52.230;12.856;2022-09-25T02:50:43;23.70;49.60
15543;DHT22;7873;52.230;12.856;2022-09-25T02:53:17;23.80;49.60
15543;DHT22;7873;52.230;12.856;2022-09-25T02:55:49;23.80;49.50
15543;DHT22;7873;52.230;12.856;2022-09-25T02:58:18;23.80;49.40
15543;DHT22;7873;52.230;12.856;2022-09-25T03:00:51;23.90;49.40
15543;DHT22;7873;52.230;12.856;2022-09-25T03:03:19;23.80;49.30
15543;DHT22;7873;52.230;12.856;2022-09-25T03:05:48;23.80;49.40
15543;DHT22;7873;52.230;12.856;2022-09-25T03:08:16;23.90;49.40
15543;DHT22;7873;52.230;12.856;2022-09-25T03:11:03;23.90;49.50
15543;DHT22;7873;52.230;12.856;2022-09-25T03:13:30;23.80;49.50
15543;DHT22;7873;52.230;12.856;2022-09-25T03:16:00;23.80;49.40
15543;DHT22;7873;52.230;12.856;2022-09-25T03:18:29;23.80;49.30
15543;DHT22;7873;52.230;12.856;2022-09-25T03:20:56;23.80;49.20
15543;DHT22;7873;52.230;12.856;2022-09-25T03:23:23;23.80;49.20
15543;DHT22;7873;52.230;12.856;2022-09-25T03:25:51;23.80;49.10
15543;DHT22;7873;52.230;12.856;2022-09-25T03:28:19;23.80;49.00
15543;DHT22;7873;52.230;12.856;2022-09-25T03:30:56;23.80;49.00
15543;DHT22;7873;52.230;12.856;2022-09-25T03:33:27;23.80;48.90
15543;DHT22;7873;52.230;12.856;2022-09-25T03:36:01;23.80;49.00
15543;DHT22;7873;52.230;12.856;2022-09-25T03:38:29;23.70;49.00
15543;DHT22;7873;52.230;12.856;2022-09-25T03:40:56;23.70;49.20
15543;DHT22;7873;52.230;12.856;2022-09-25T03:43:23;23.70;49.00
15543;DHT22;7873;52.230;12.856;2022-09-25T03:45:50;23.70;49.00
15543;DHT22;7873;52.230;12.856;2022-09-25T03:48:16;23.70;49.00
15543;DHT22;7873;52.230;12.856;2022-09-25T03:50:44;23.70;49.00
15543;DHT22;7873;52.230;12.856;2022-09-25T03:53:12;23.70;49.90
15543;DHT22;7873;52.230;12.856;2022-09-25T03:55:40;23.80;49.30
15543;DHT22;7873;52.230;12.856;2022-09-25T03:58:06;23.80;49.30
15543;DHT22;7873;52.230;12.856;2022-09-25T04:00:34;23.80;49.30
15543;DHT22;7873;52.230;12.856;2022-09-25T04:03:01;23.80;49.30
15543;DHT22;7873;52.230;12.856;2022-09-25T04:05:28;23.90;49.30
15543;DHT22;7873;52.230;12.856;2022-09-25T04:07:56;23.80;49.30
15543;DHT22;7873;52.230;12.856;2022-09-25T04:10:25;23.90;49.20
15543;DHT22;7873;52.230;12.856;2022-09-25T04:12:52;23.90;49.20
15543;DHT22;7873;52.230;12.856;2022-09-25T04:15:19;23.80;49.30
15543;DHT22;7873;52.230;12.856;2022-09-25T04:17:47;23.90;49.20
15543;DHT22;7873;52.230;12.856;2022-09-25T04:20:14;23.90;49.20
15543;DHT22;7873;52.230;12.856;2022-09-25T04:22:40;23.80;49.00
15543;DHT22;7873;52.230;12.856;2022-09-25T04:25:09;23.80;49.00
15543;DHT22;7873;52.230;12.856;2022-09-25T04:27:36;23.80;49.00
15543;DHT22;7873;52.230;12.856;2022-09-25T04:30:03;23.80;49.00
15543;DHT22;7873;52.230;12.856;2022-09-25T04:32:30;23.70;48.90
15543;DHT22;7873;52.230;12.856;2022-09-25T04:35:15;23.70;49.10
15543;DHT22;7873;52.230;12.856;2022-09-25T04:37:41;23.60;49.30
15543;DHT22;7873;52.230;12.856;2022-09-25T04:40:10;23.60;49.30
15543;DHT22;7873;52.230;12.856;2022-09-25T04:42:36;23.60;49.50
15543;DHT22;7873;52.230;12.856;2022-09-25T04:45:06;23.60;49.50
15543;DHT22;7873;52.230;12.856;2022-09-25T04:47:33;23.60;49.50
15543;DHT22;7873;52.230;12.856;2022-09-25T04:50:00;23.60;49.30
15543;DHT22;7873;52.230;12.856;2022-09-25T04:52:26;23.60;49.30
15543;DHT22;7873;52.230;12.856;2022-09-25T04:54:56;23.70;49.30
15543;DHT22;7873;52.230;12.856;2022-09-25T04:57:24;23.70;49.20
15543;DHT22;7873;52.230;12.856;2022-09-25T04:59:50;23.80;49.50
15543;DHT22;7873;52.230;12.856;2022-09-25T05:02:17;24.00;49.10
15543;DHT22;7873;52.230;12.856;2022-09-25T05:04:44;23.90;49.20
15543;DHT22;7873;52.230;12.856;2022-09-25T05:07:10;23.90;49.60
15543;DHT22;7873;52.230;12.856;2022-09-25T05:09:38;23.90;49.80
15543;DHT22;7873;52.230;12.856;2022-09-25T05:12:05;23.90;50.00
15543;DHT22;7873;52.230;12.856;2022-09-25T05:14:33;23.90;50.00
15543;DHT22;7873;52.230;12.856;2022-09-25T05:17:00;23.90;50.20
15543;DHT22;7873;52.230;12.856;2022-09-25T05:19:27;23.90;50.10
15543;DHT22;7873;52.230;12.856;2022-09-25T05:21:54;23.80;50.70
15543;DHT22;7873;52.230;12.856;2022-09-25T05:24:20;23.90;50.80
15543;DHT22;7873;52.230;12.856;2022-09-25T05:26:47;23.90;50.60
15543;DHT22;7873;52.230;12.856;2022-09-25T05:29:14;23.90;50.50
15543;DHT22;7873;52.230;12.856;2022-09-25T05:31:42;24.00;51.10
15543;DHT22;7873;52.230;12.856;2022-09-25T05:34:11;23.90;51.70
15543;DHT22;7873;52.230;12.856;2022-09-25T05:36:38;23.90;51.80
15543;DHT22;7873;52.230;12.856;2022-09-25T05:39:05;23.90;52.20
15543;DHT22;7873;52.230;12.856;2022-09-25T05:41:31;23.90;52.30
15543;DHT22;7873;52.230;12.856;2022-09-25T05:44:00;23.90;51.90
15543;DHT22;7873;52.230;12.856;2022-09-25T05:46:31;24.00;52.00
15543;DHT22;7873;52.230;12.856;2022-09-25T05:48:59;24.00;52.00
15543;DHT22;7873;52.230;12.856;2022-09-25T05:51:25;24.10;52.40
15543;DHT22;7873;52.230;12.856;2022-09-25T05:53:52;24.20;51.70
15543;DHT22;7873;52.230;12.856;2022-09-25T05:56:19;24.20;50.60
15543;DHT22;7873;52.230;12.856;2022-09-25T05:58:48;24.30;50.80
15543;DHT22;7873;52.230;12.856;2022-09-25T06:01:15;24.30;50.60
15543;DHT22;7873;52.230;12.856;2022-09-25T06:03:42;24.30;50.70
15543;DHT22;7873;52.230;12.856;2022-09-25T06:06:10;24.30;50.60
15543;DHT22;7873;52.230;12.856;2022-09-25T06:08:37;24.30;50.60
15543;DHT22;7873;52.230;12.856;2022-09-25T06:11:04;24.40;50.20
15543;DHT22;7873;52.230;12.856;2022-09-25T06:13:32;24.40;50.70
15543;DHT22;7873;52.230;12.856;2022-09-25T06:16:01;24.40;51.00
15543;DHT22;7873;52.230;12.856;2022-09-25T06:18:29;24.40;51.20
15543;DHT22;7873;52.230;12.856;2022-09-25T06:21:00;24.30;51.60
15543;DHT22;7873;52.230;12.856;2022-09-25T06:23:29;24.30;51.30
15543;DHT22;7873;52.230;12.856;2022-09-25T06:25:58;24.30;51.60
15543;DHT22;7873;52.230;12.856;2022-09-25T06:28:27;24.30;51.80
15543;DHT22;7873;52.230;12.856;2022-09-25T06:30:54;24.30;51.20
15543;DHT22;7873;52.230;12.856;2022-09-25T06:33:20;24.40;50.70
15543;DHT22;7873;52.230;12.856;2022-09-25T06:35:47;24.40;50.20
15543;DHT22;7873;52.230;12.856;2022-09-25T06:38:14;24.00;51.10
15543;DHT22;7873;52.230;12.856;2022-09-25T06:40:43;24.00;51.10
15543;DHT22;7873;52.230;12.856;2022-09-25T06:43:10;24.00;50.50
15543;DHT22;7873;52.230;12.856;2022-09-25T06:45:38;24.10;50.20
15543;DHT22;7873;52.230;12.856;2022-09-25T06:48:06;24.00;49.70
15543;DHT22;7873;52.230;12.856;2022-09-25T06:50:35;24.00;49.90
15543;DHT22;7873;52.230;12.856;2022-09-25T06:53:04;23.90;49.70
15543;DHT22;7873;52.230;12.856;2022-09-25T06:55:31;24.10;50.10
15543;DHT22;7873;52.230;12.856;2022-09-25T06:58:00;24.10;49.50
15543;DHT22;7873;52.230;12.856;2022-09-25T07:00:26;24.20;49.80
15543;DHT22;7873;52.230;12.856;2022-09-25T07:02:53;24.20;49.60
15543;DHT22;7873;52.230;12.856;2022-09-25T07:05:38;24.30;49.40
15543;DHT22;7873;52.230;12.856;2022-09-25T07:08:06;23.70;46.40
15543;DHT22;7873;52.230;12.856;2022-09-25T07:10:33;23.40;47.00
15543;DHT22;7873;52.230;12.856;2022-09-25T07:13:01;23.20;46.90
15543;DHT22;7873;52.230;12.856;2022-09-25T07:15:29;22.90;47.70
15543;DHT22;7873;52.230;12.856;2022-09-25T07:17:57;22.80;48.00
15543;DHT22;7873;52.230;12.856;2022-09-25T07:20:24;22.80;48.40
15543;DHT22;7873;52.230;12.856;2022-09-25T07:22:50;22.80;48.90
15543;DHT22;7873;52.230;12.856;2022-09-25T07:25:18;23.00;48.60
15543;DHT22;7873;52.230;12.856;2022-09-25T07:27:45;23.20;48.90
15543;DHT22;7873;52.230;12.856;2022-09-25T07:30:13;23.40;47.80
15543;DHT22;7873;52.230;12.856;2022-09-25T07:32:42;23.60;47.60
15543;DHT22;7873;52.230;12.856;2022-09-25T07:35:09;23.50;48.20
15543;DHT22;7873;52.230;12.856;2022-09-25T07:37:35;23.40;48.40
15543;DHT22;7873;52.230;12.856;2022-09-25T07:40:02;23.30;48.30
15543;DHT22;7873;52.230;12.856;2022-09-25T07:42:30;23.30;48.50
15543;DHT22;7873;52.230;12.856;2022-09-25T07:44:57;23.40;48.50
15543;DHT22;7873;52.230;12.856;2022-09-25T07:47:25;23.40;48.50
15543;DHT22;7873;52.230;12.856;2022-09-25T07:49:52;23.40;48.50
15543;DHT22;7873;52.230;12.856;2022-09-25T07:52:21;23.30;47.10
15543;DHT22;7873;52.230;12.856;2022-09-25T07:54:48;23.10;47.30
15543;DHT22;7873;52.230;12.856;2022-09-25T07:57:14;22.90;48.50
15543;DHT22;7873;52.230;12.856;2022-09-25T07:59:44;23.00;49.00
15543;DHT22;7873;52.230;12.856;2022-09-25T08:02:12;22.90;49.40
15543;DHT22;7873;52.230;12.856;2022-09-25T08:04:40;23.00;49.30
15543;DHT22;7873;52.230;12.856;2022-09-25T08:07:07;23.20;48.90
15543;DHT22;7873;52.230;12.856;2022-09-25T08:09:34;23.20;49.00
15543;DHT22;7873;52.230;12.856;2022-09-25T08:12:02;23.20;49.10
15543;DHT22;7873;52.230;12.856;2022-09-25T08:14:29;23.10;49.20
15543;DHT22;7873;52.230;12.856;2022-09-25T08:16:57;23.30;49.20
15543;DHT22;7873;52.230;12.856;2022-09-25T08:19:24;23.40;49.30
15543;DHT22;7873;52.230;12.856;2022-09-25T08:21:53;23.40;49.20
15543;DHT22;7873;52.230;12.856;2022-09-25T08:24:20;23.50;49.40
15543;DHT22;7873;52.230;12.856;2022-09-25T08:26:46;23.50;49.40
15543;DHT22;7873;52.230;12.856;2022-09-25T08:29:14;23.50;49.20
15543;DHT22;7873;52.230;12.856;2022-09-25T08:31:41;23.60;49.00
15543;DHT22;7873;52.230;12.856;2022-09-25T08:34:08;23.60;49.00
15543;DHT22;7873;52.230;12.856;2022-09-25T08:36:35;23.50;49.10
15543;DHT22;7873;52.230;12.856;2022-09-25T08:39:03;23.60;49.10
15543;DHT22;7873;52.230;12.856;2022-09-25T08:41:30;23.70;49.00
15543;DHT22;7873;52.230;12.856;2022-09-25T08:44:04;23.70;49.00
15543;DHT22;7873;52.230;12.856;2022-09-25T08:46:36;23.60;49.40
15543;DHT22;7873;52.230;12.856;2022-09-25T08:49:24;23.60;49.70
15543;DHT22;7873;52.230;12.856;2022-09-25T08:51:58;23.70;49.70
15543;DHT22;7873;52.230;12.856;2022-09-25T08:54:30;23.70;49.70
15543;DHT22;7873;52.230;12.856;2022-09-25T08:56:59;23.80;50.00
15543;DHT22;7873;52.230;12.856;2022-09-25T08:59:33;23.80;50.30
15543;DHT22;7873;52.230;12.856;2022-09-25T09:02:08;23.70;50.90
15543;DHT22;7873;52.230;12.856;2022-09-25T09:04:40;23.60;51.40
15543;DHT22;7873;52.230;12.856;2022-09-25T09:07:11;23.70;51.70
15543;DHT22;7873;52.230;12.856;2022-09-25T09:09:44;23.70;51.70
15543;DHT22;7873;52.230;12.856;2022-09-25T09:12:16;23.70;51.70
15543;DHT22;7873;52.230;12.856;2022-09-25T09:14:47;23.80;51.90
15543;DHT22;7873;52.230;12.856;2022-09-25T09:17:16;23.80;51.80
15543;DHT22;7873;52.230;12.856;2022-09-25T09:19:47;23.80;51.70
15543;DHT22;7873;52.230;12.856;2022-09-25T09:22:17;23.90;51.80
15543;DHT22;7873;52.230;12.856;2022-09-25T09:24:54;23.90;52.50
15543;DHT22;7873;52.230;12.856;2022-09-25T09:27:31;23.80;52.70
15543;DHT22;7873;52.230;12.856;2022-09-25T09:30:21;23.90;52.80
15543;DHT22;7873;52.230;12.856;2022-09-25T09:33:04;24.00;53.00
15543;DHT22;7873;52.230;12.856;2022-09-25T09:35:42;24.00;53.00
15543;DHT22;7873;52.230;12.856;2022-09-25T09:38:20;24.00;53.10
15543;DHT22;7873;52.230;12.856;2022-09-25T09:41:09;24.00;53.00
15543;DHT22;7873;52.230;12.856;2022-09-25T09:43:47;24.10;53.20
15543;DHT22;7873;52.230;12.856;2022-09-25T09:46:25;24.20;53.10
15543;DHT22;7873;52.230;12.856;2022-09-25T09:49:02;24.20;52.70
15543;DHT22;7873;52.230;12.856;2022-09-25T09:51:35;24.20;53.10
15543;DHT22;7873;52.230;12.856;2022-09-25T09:54:09;24.20;52.80
15543;DHT22;7873;52.230;12.856;2022-09-25T09:56:41;24.20;53.10
15543;DHT22;7873;52.230;12.856;2022-09-25T09:59:12;24.30;53.20
15543;DHT22;7873;52.230;12.856;2022-09-25T10:01:44;24.30;53.10
15543;DHT22;7873;52.230;12.856;2022-09-25T10:04:19;24.30;53.00
15543;DHT22;7873;52.230;12.856;2022-09-25T10:06:54;24.20;52.90
15543;DHT22;7873;52.230;12.856;2022-09-25T10:09:26;24.30;53.00
15543;DHT22;7873;52.230;12.856;2022-09-25T10:11:56;24.30;52.20
15543;DHT22;7873;52.230;12.856;2022-09-25T10:14:30;24.40;52.10
15543;DHT22;7873;52.230;12.856;2022-09-25T10:17:04;24.40;52.20
15543;DHT22;7873;52.230;12.856;2022-09-25T10:19:47;24.40;51.90
15543;DHT22;7873;52.230;12.856;2022-09-25T10:22:19;24.40;52.00
15543;DHT22;7873;52.230;12.856;2022-09-25T10:24:52;24.50;51.50
15543;DHT22;7873;52.230;12.856;2022-09-25T10:27:28;24.50;51.50
15543;DHT22;7873;52.230;12.856;2022-09-25T10:30:00;24.40;51.20
15543;DHT22;7873;52.230;12.856;2022-09-25T10:32:31;24.40;51.30
15543;DHT22;7873;52.230;12.856;2022-09-25T10:35:01;24.30;51.00
15543;DHT22;7873;52.230;12.856;2022-09-25T10:37:31;24.20;51.40
15543;DHT22;7873;52.230;12.856;2022-09-25T10:40:01;24.20;51.30
15543;DHT22;7873;52.230;12.856;2022-09-25T10:42:33;24.30;51.20
15543;DHT22;7873;52.230;12.856;2022-09-25T10:47:54;24.30;51.40
15543;DHT22;7873;52.230;12.856;2022-09-25T10:50:39;24.30;51.40
15543;DHT22;7873;52.230;12.856;2022-09-25T10:53:09;24.40;51.30
15543;DHT22;7873;52.230;12.856;2022-09-25T10:55:52;24.40;51.60
15543;DHT22;7873;52.230;12.856;2022-09-25T10:58:27;24.20;49.20
15543;DHT22;7873;52.230;12.856;2022-09-25T11:00:58;24.00;50.90
15543;DHT22;7873;52.230;12.856;2022-09-25T11:03:28;24.00;50.10
15543;DHT22;7873;52.230;12.856;2022-09-25T11:06:00;24.00;49.20
15543;DHT22;7873;52.230;12.856;2022-09-25T11:08:31;23.90;46.40
15543;DHT22;7873;52.230;12.856;2022-09-25T11:11:02;23.90;47.70
15543;DHT22;7873;52.230;12.856;2022-09-25T11:13:32;24.00;48.00
15543;DHT22;7873;52.230;12.856;2022-09-25T11:16:04;24.10;46.10
15543;DHT22;7873;52.230;12.856;2022-09-25T11:18:36;23.90;46.10
15543;DHT22;7873;52.230;12.856;2022-09-25T11:21:05;24.10;48.00
15543;DHT22;7873;52.230;12.856;2022-09-25T11:23:47;24.20;48.00
15543;DHT22;7873;52.230;12.856;2022-09-25T11:26:26;24.30;48.00
15543;DHT22;7873;52.230;12.856;2022-09-25T11:29:01;24.30;48.30
15543;DHT22;7873;52.230;12.856;2022-09-25T11:31:33;24.30;48.60
15543;DHT22;7873;52.230;12.856;2022-09-25T11:34:06;24.40;49.00
15543;DHT22;7873;52.230;12.856;2022-09-25T11:36:40;24.40;49.40
15543;DHT22;7873;52.230;12.856;2022-09-25T11:39:11;24.50;49.90
15543;DHT22;7873;52.230;12.856;2022-09-25T11:42:03;24.50;50.40
15543;DHT22;7873;52.230;12.856;2022-09-25T11:44:35;24.50;50.70
15543;DHT22;7873;52.230;12.856;2022-09-25T11:47:09;24.50;51.20
15543;DHT22;7873;52.230;12.856;2022-09-25T11:49:41;24.50;51.60
15543;DHT22;7873;52.230;12.856;2022-09-25T11:55:06;24.60;52.10
15543;DHT22;7873;52.230;12.856;2022-09-25T11:57:53;24.60;52.10
15543;DHT22;7873;52.230;12.856;2022-09-25T12:00:29;24.60;52.10
15543;DHT22;7873;52.230;12.856;2022-09-25T12:03:10;24.60;52.30
15543;DHT22;7873;52.230;12.856;2022-09-25T12:06:16;24.60;52.30
15543;DHT22;7873;52.230;12.856;2022-09-25T12:08:53;24.60;52.20
15543;DHT22;7873;52.230;12.856;2022-09-25T12:11:30;24.70;52.30
15543;DHT22;7873;52.230;12.856;2022-09-25T12:14:07;24.60;52.30
15543;DHT22;7873;52.230;12.856;2022-09-25T12:16:44;24.70;52.40
15543;DHT22;7873;52.230;12.856;2022-09-25T12:19:19;24.70;52.40
15543;DHT22;7873;52.230;12.856;2022-09-25T12:21:55;24.60;52.20
15543;DHT22;7873;52.230;12.856;2022-09-25T12:24:39;24.60;52.10
15543;DHT22;7873;52.230;12.856;2022-09-25T12:27:17;24.70;52.30
15543;DHT22;7873;52.230;12.856;2022-09-25T12:29:54;24.60;52.20
15543;DHT22;7873;52.230;12.856;2022-09-25T12:32:37;24.70;52.20
15543;DHT22;7873;52.230;12.856;2022-09-25T12:35:17;24.60;52.20
15543;DHT22;7873;52.230;12.856;2022-09-25T12:37:53;24.60;52.10
15543;DHT22;7873;52.230;12.856;2022-09-25T12:40:23;24.60;52.10
15543;DHT22;7873;52.230;12.856;2022-09-25T12:42:55;24.60;51.90
15543;DHT22;7873;52.230;12.856;2022-09-25T12:45:28;24.50;52.10
15543;DHT22;7873;52.230;12.856;2022-09-25T12:48:05;24.50;52.00
15543;DHT22;7873;52.230;12.856;2022-09-25T12:50:37;24.50;52.00
15543;DHT22;7873;52.230;12.856;2022-09-25T12:53:15;24.50;52.00
15543;DHT22;7873;52.230;12.856;2022-09-25T12:55:55;24.50;52.00
15543;DHT22;7873;52.230;12.856;2022-09-25T12:58:36;24.50;51.90
15543;DHT22;7873;52.230;12.856;2022-09-25T13:01:10;24.50;51.90
15543;DHT22;7873;52.230;12.856;2022-09-25T13:03:45;24.50;52.10
15543;DHT22;7873;52.230;12.856;2022-09-25T13:06:17;24.50;51.90
15543;DHT22;7873;52.230;12.856;2022-09-25T13:08:50;24.50;51.80
15543;DHT22;7873;52.230;12.856;2022-09-25T13:11:26;24.50;51.80
15543;DHT22;7873;52.230;12.856;2022-09-25T13:13:59;24.40;51.90
15543;DHT22;7873;52.230;12.856;2022-09-25T13:16:27;24.40;52.00
15543;DHT22;7873;52.230;12.856;2022-09-25T13:19:09;24.40;52.00
15543;DHT22;7873;52.230;12.856;2022-09-25T13:21:38;24.40;52.10
15543;DHT22;7873;52.230;12.856;2022-09-25T13:24:10;24.30;52.10
15543;DHT22;7873;52.230;12.856;2022-09-25T13:26:43;24.40;52.00
15543;DHT22;7873;52.230;12.856;2022-09-25T13:29:16;24.40;52.00
15543;DHT22;7873;52.230;12.856;2022-09-25T13:31:48;24.40;52.00
15543;DHT22;7873;52.230;12.856;2022-09-25T13:34:19;24.40;52.00
15543;DHT22;7873;52.230;12.856;2022-09-25T13:36:49;24.30;52.70
15543;DHT22;7873;52.230;12.856;2022-09-25T13:39:19;24.40;52.10
15543;DHT22;7873;52.230;12.856;2022-09-25T13:42:11;24.40;51.90
15543;DHT22;7873;52.230;12.856;2022-09-25T13:44:55;24.30;52.00
15543;DHT22;7873;52.230;12.856;2022-09-25T13:50:33;24.30;51.70
15543;DHT22;7873;52.230;12.856;2022-09-25T13:53:11;24.40;51.60
15543;DHT22;7873;52.230;12.856;2022-09-25T13:56:03;24.40;51.60
15543;DHT22;7873;52.230;12.856;2022-09-25T14:01:37;24.70;51.90
15543;DHT22;7873;52.230;12.856;2022-09-25T14:04:09;24.40;51.50
15543;DHT22;7873;52.230;12.856;2022-09-25T14:06:42;24.40;51.10
15543;DHT22;7873;52.230;12.856;2022-09-25T14:09:11;24.20;49.60
15543;DHT22;7873;52.230;12.856;2022-09-25T14:11:41;24.00;50.10
15543;DHT22;7873;52.230;12.856;2022-09-25T14:14:16;23.80;50.00
15543;DHT22;7873;52.230;12.856;2022-09-25T14:16:50;23.70;50.60
15543;DHT22;7873;52.230;12.856;2022-09-25T14:19:20;23.70;50.30
15543;DHT22;7873;52.230;12.856;2022-09-25T14:21:52;23.60;50.60
15543;DHT22;7873;52.230;12.856;2022-09-25T14:24:20;23.80;51.30
15543;DHT22;7873;52.230;12.856;2022-09-25T14:26:53;24.10;50.90
15543;DHT22;7873;52.230;12.856;2022-09-25T14:29:23;24.20;50.80
15543;DHT22;7873;52.230;12.856;2022-09-25T14:31:54;24.30;50.60
15543;DHT22;7873;52.230;12.856;2022-09-25T14:34:34;24.40;50.20
15543;DHT22;7873;52.230;12.856;2022-09-25T14:37:38;24.50;50.00
15543;DHT22;7873;52.230;12.856;2022-09-25T14:40:20;24.50;49.80
15543;DHT22;7873;52.230;12.856;2022-09-25T14:42:57;24.40;50.20
15543;DHT22;7873;52.230;12.856;2022-09-25T14:48:25;24.40;50.20
15543;DHT22;7873;52.230;12.856;2022-09-25T14:50:55;24.40;50.40
15543;DHT22;7873;52.230;12.856;2022-09-25T14:53:27;24.50;50.00
15543;DHT22;7873;52.230;12.856;2022-09-25T14:55:56;24.50;49.80
15543;DHT22;7873;52.230;12.856;2022-09-25T14:58:27;24.50;49.80
15543;DHT22;7873;52.230;12.856;2022-09-25T15:00:58;24.50;49.80
15543;DHT22;7873;52.230;12.856;2022-09-25T15:03:30;24.50;49.90
15543;DHT22;7873;52.230;12.856;2022-09-25T15:05:59;24.60;50.10
15543;DHT22;7873;52.230;12.856;2022-09-25T15:08:33;24.50;50.10
15543;DHT22;7873;52.230;12.856;2022-09-25T15:11:02;24.50;50.30
15543;DHT22;7873;52.230;12.856;2022-09-25T15:13:35;24.50;50.20
15543;DHT22;7873;52.230;12.856;2022-09-25T15:16:01;24.50;50.30
15543;DHT22;7873;52.230;12.856;2022-09-25T15:18:48;24.50;50.40
15543;DHT22;7873;52.230;12.856;2022-09-25T15:21:20;24.40;50.60
15543;DHT22;7873;52.230;12.856;2022-09-25T15:23:51;24.40;50.90
15543;DHT22;7873;52.230;12.856;2022-09-25T15:26:19;24.40;50.90
15543;DHT22;7873;52.230;12.856;2022-09-25T15:28:47;24.40;51.10
15543;DHT22;7873;52.230;12.856;2022-09-25T15:31:15;24.40;51.00
15543;DHT22;7873;52.230;12.856;2022-09-25T15:33:42;24.40;51.10
15543;DHT22;7873;52.230;12.856;2022-09-25T15:36:14;24.40;51.30
15543;DHT22;7873;52.230;12.856;2022-09-25T15:38:51;24.40;51.50
15543;DHT22;7873;52.230;12.856;2022-09-25T15:41:19;24.30;51.80
15543;DHT22;7873;52.230;12.856;2022-09-25T15:43:47;24.30;51.80
15543;DHT22;7873;52.230;12.856;2022-09-25T15:46:25;24.30;51.90
15543;DHT22;7873;52.230;12.856;2022-09-25T15:48:58;24.30;49.50
15543;DHT22;7873;52.230;12.856;2022-09-25T15:51:27;24.20;51.00
15543;DHT22;7873;52.230;12.856;2022-09-25T15:54:00;24.40;51.00
15543;DHT22;7873;52.230;12.856;2022-09-25T15:56:30;24.40;50.60
15543;DHT22;7873;52.230;12.856;2022-09-25T15:59:04;24.50;50.50
15543;DHT22;7873;52.230;12.856;2022-09-25T16:01:41;24.50;50.60
15543;DHT22;7873;52.230;12.856;2022-09-25T16:04:25;24.50;51.40
15543;DHT22;7873;52.230;12.856;2022-09-25T16:07:24;24.30;50.60
15543;DHT22;7873;52.230;12.856;2022-09-25T16:09:56;24.40;50.60
15543;DHT22;7873;52.230;12.856;2022-09-25T16:12:28;24.40;50.40